Time;durP1;ratioP1;P1;durP2;ratioP2;P2;SDS_P1;SDS_P2;PMS_P1;PMS_P2;Temp;Humidity;BMP_temperature;BMP_pressure;BME280_temperature;BME280_humidity;BME280_pressure;Samples;Min_cycle;Max_cycle;Signal;HPM_P1;HPM_P2
2022/11/11 00:00:12;;;;;;;;;;;;;;;;;;5082799;28;19932;-79
2022/11/11 00:02:38;;;;;;;;;;;;;;;;;;5092239;28;19931;-78
2022/11/11 00:05:05;;;;;;;;;;;;;;;;;;5091609;28;19932;-79
2022/11/11 00:07:31;;;;;;;;;;;;;;;;;;5083377;28;19967;-77
2022/11/11 00:09:58;;;;;;;;;;;;;;;;;;5080331;28;19959;-78
2022/11/11 00:12:24;;;;;;;;;;;;;;;;;;5087588;28;19935;-79
2022/11/11 00:14:52;;;;;;;;;;;;;;;;;;5086952;28;19948;-79
2022/11/11 00:25:37;;;;;;;;;;;;;;;;;;5087758;28;19931;-80
2022/11/11 00:28:04;;;;;;;;;;;;;;;;;;5086951;28;19925;-79
2022/11/11 00:30:32;;;;;;;;;;;;;;;;;;5087593;28;20792;-79
2022/11/11 00:32:58;;;;;;;;;;;;;;;;;;5087027;28;19932;-78
2022/11/11 00:38:10;;;;;;;;;;;;;;;;;;5086488;28;19938;-78
2022/11/11 00:40:36;;;;;;;;;;;;;;;;;;5084320;28;20307;-77
2022/11/11 00:43:03;;;;;;;;;;;;;;;;;;5080329;28;19952;-78
2022/11/11 00:45:29;;;;;;;;;;;;;;;;;;5082138;28;19943;-78
2022/11/11 00:51:00;;;;;;;;;;;;;;;;;;5084461;28;20043;-79
2022/11/11 00:53:28;;;;;;;;;;;;;;;;;;5083124;28;19970;-80
2022/11/11 00:55:55;;;;;;;;;;;;;;;;;;5084511;28;19932;-79
2022/11/11 00:58:22;;;;;;;;;;;;;;;;;;5079796;28;19936;-77
2022/11/11 01:00:52;;;;;;;;;;;;;;;;;;5080746;28;20038;-78
2022/11/11 01:03:20;;;;;;;;;;;;;;;;;;5083783;28;19924;-79
2022/11/11 01:05:50;;;;;;;;;;;;;;;;;;5082093;28;19928;-79
2022/11/11 01:08:16;;;;;;;;;;;;;;;;;;5080730;28;19925;-78
2022/11/11 01:10:43;;;;;;;;;;;;;;;;;;5091362;28;19959;-78
2022/11/11 01:13:15;;;;;;;;;;;;;;;;;;5089651;28;19919;-79
2022/11/11 01:15:42;;;;;;;;;;;;;;;;;;5091714;28;19935;-77
2022/11/11 01:18:09;;;;;;;;;;;;;;;;;;5083750;28;21106;-77
2022/11/11 01:20:37;;;;;;;;;;;;;;;;;;5079536;28;19952;-78
2022/11/11 01:23:04;;;;;;;;;;;;;;;;;;5083740;28;19964;-78
2022/11/11 01:25:37;;;;;;;;;;;;;;;;;;5086952;28;20394;-80
2022/11/11 01:28:04;;;;;;;;;;;;;;;;;;5076656;28;19924;-77
2022/11/11 01:30:32;;;;;;;;;;;;;;;;;;5078869;28;19925;-78
2022/11/11 01:32:58;;;;;;;;;;;;;;;;;;5078467;28;19978;-79
2022/11/11 01:35:25;;;;;;;;;;;;;;;;;;5070715;28;20481;-76
2022/11/11 01:37:53;;;;;;;;;;;;;;;;;;5076196;28;19963;-79
2022/11/11 01:40:20;;;;;;;;;;;;;;;;;;5076667;28;19924;-78
2022/11/11 01:42:47;;;;;;;;;;;;;;;;;;5076413;28;19924;-79
2022/11/11 01:45:32;;;;;;;;;;;;;;;;;;5076382;28;19935;-77
2022/11/11 01:50:43;;;;;;;;;;;;;;;;;;5076529;28;20473;-78
2022/11/11 01:53:10;;;;;;;;;;;;;;;;;;5077060;28;19962;-78
2022/11/11 01:55:37;;;;;;;;;;;;;;;;;;5071504;28;19924;-76
2022/11/11 01:58:06;;;;;;;;;;;;;;;;;;5086171;28;19968;-77
2022/11/11 02:00:33;;;;;;;;;;;;;;;;;;5085037;28;19978;-78
2022/11/11 02:03:00;;;;;;;;;;;;;;;;;;5083126;28;19968;-77
2022/11/11 02:05:42;;;;;;;;;;;;;;;;;;5081203;28;19924;-76
2022/11/11 02:08:10;;;;;;;;;;;;;;;;;;5077087;28;19982;-77
2022/11/11 02:10:39;;;;;;;;;;;;;;;;;;5076375;28;20584;-78
2022/11/11 02:15:50;;;;;;;;;;;;;;;;;;5071956;28;19932;-77
2022/11/11 02:18:16;;;;;;;;;;;;;;;;;;5076849;28;20015;-78
2022/11/11 02:20:44;;;;;;;;;;;;;;;;;;5076477;28;19964;-76
2022/11/11 02:23:12;;;;;;;;;;;;;;;;;;5073159;28;20517;-77
2022/11/11 02:25:42;;;;;;;;;;;;;;;;;;5075452;28;19946;-77
2022/11/11 02:28:09;;;;;;;;;;;;;;;;;;5076298;28;19955;-77
2022/11/11 02:30:35;;;;;;;;;;;;;;;;;;5078194;28;19932;-77
2022/11/11 02:33:02;;;;;;;;;;;;;;;;;;5080676;28;19986;-77
2022/11/11 02:35:31;;;;;;;;;;;;;;;;;;5080659;28;19924;-77
2022/11/11 02:37:57;;;;;;;;;;;;;;;;;;5081218;28;20006;-79
2022/11/11 02:40:26;;;;;;;;;;;;;;;;;;5078557;28;19956;-78
2022/11/11 02:42:54;;;;;;;;;;;;;;;;;;5080554;28;19929;-77
2022/11/11 02:45:20;;;;;;;;;;;;;;;;;;5080478;28;20288;-77
2022/11/11 02:47:47;;;;;;;;;;;;;;;;;;5080260;28;20655;-78
2022/11/11 02:50:13;;;;;;;;;;;;;;;;;;5080759;28;19924;-78
2022/11/11 02:52:40;;;;;;;;;;;;;;;;;;5082252;28;20016;-78
2022/11/11 02:55:07;;;;;;;;;;;;;;;;;;5082097;28;19924;-78
2022/11/11 02:57:33;;;;;;;;;;;;;;;;;;5082680;28;19929;-77
2022/11/11 03:00:01;;;;;;;;;;;;;;;;;;5083023;28;19956;-78
2022/11/11 03:02:28;;;;;;;;;;;;;;;;;;5083129;28;19928;-78
2022/11/11 03:04:55;;;;;;;;;;;;;;;;;;5080510;28;19924;-77
2022/11/11 03:07:22;;;;;;;;;;;;;;;;;;5076563;28;20477;-78
2022/11/11 03:09:48;;;;;;;;;;;;;;;;;;5075910;28;19924;-77
2022/11/11 03:12:15;;;;;;;;;;;;;;;;;;5075500;28;20489;-77
2022/11/11 03:14:42;;;;;;;;;;;;;;;;;;5074911;28;20006;-76
2022/11/11 03:21:03;;;;;;;;;;;;;;;;;;5067456;28;19931;-77
2022/11/11 03:22:39;;;;;;;;;;;;;;;;;;5074767;28;19946;-77
2022/11/11 03:27:50;;;;;;;;;;;;;;;;;;5073114;28;19939;-78
2022/11/11 03:30:17;;;;;;;;;;;;;;;;;;5075381;28;19924;-78
2022/11/11 03:32:45;;;;;;;;;;;;;;;;;;5073453;28;19959;-77
2022/11/11 03:35:11;;;;;;;;;;;;;;;;;;5075382;28;20268;-78
2022/11/11 03:40:21;;;;;;;;;;;;;;;;;;5074712;28;19931;-78
2022/11/11 03:42:48;;;;;;;;;;;;;;;;;;5073334;28;19925;-78
2022/11/11 03:45:14;;;;;;;;;;;;;;;;;;5074186;28;20331;-77
2022/11/11 03:47:41;;;;;;;;;;;;;;;;;;5075558;28;20018;-78
2022/11/11 03:50:09;;;;;;;;;;;;;;;;;;5075189;28;19931;-77
2022/11/11 03:52:35;;;;;;;;;;;;;;;;;;5074377;28;20278;-77
2022/11/11 03:55:02;;;;;;;;;;;;;;;;;;5073274;28;20360;-77
2022/11/11 03:57:31;;;;;;;;;;;;;;;;;;5073227;28;19925;-77
2022/11/11 03:59:58;;;;;;;;;;;;;;;;;;5073523;28;19931;-78
2022/11/11 04:10:38;;;;;;;;;;;;;;;;;;5070175;28;19977;-77
2022/11/11 04:16:07;;;;;;;;;;;;;;;;;;5072503;28;20303;-77
2022/11/11 04:25:47;;;;;;;;;;;;;;;;;;5077979;28;19951;-78
2022/11/11 04:26:49;;;;;;;;;;;;;;;;;;5076741;28;20003;-78
2022/11/11 04:29:28;;;;;;;;;;;;;;;;;;5077557;28;20378;-77
2022/11/11 04:34:38;;;;;;;;;;;;;;;;;;5077591;28;19932;-77
2022/11/11 04:37:06;;;;;;;;;;;;;;;;;;5074270;28;20001;-76
2022/11/11 04:42:16;;;;;;;;;;;;;;;;;;5074086;28;20333;-77
2022/11/11 04:47:27;;;;;;;;;;;;;;;;;;5071246;28;20474;-78
2022/11/11 04:49:53;;;;;;;;;;;;;;;;;;5080265;28;19988;-77
2022/11/11 04:52:27;;;;;;;;;;;;;;;;;;5073768;28;20355;-77
2022/11/11 04:57:48;;;;;;;;;;;;;;;;;;5046622;28;19928;-78
2022/11/11 05:00:15;;;;;;;;;;;;;;;;;;5073634;28;19980;-78
2022/11/11 05:05:26;;;;;;;;;;;;;;;;;;5067007;28;19931;-77
2022/11/11 05:10:38;;;;;;;;;;;;;;;;;;5072539;28;19935;-77
2022/11/11 05:21:22;;;;;;;;;;;;;;;;;;5069825;28;19973;-77
2022/11/11 05:26:33;;;;;;;;;;;;;;;;;;5073094;28;19935;-77
2022/11/11 05:29:00;;;;;;;;;;;;;;;;;;5072362;28;19967;-77
2022/11/11 05:31:27;;;;;;;;;;;;;;;;;;5071236;28;19924;-77
2022/11/11 05:33:53;;;;;;;;;;;;;;;;;;5071927;28;20017;-78
2022/11/11 05:36:20;;;;;;;;;;;;;;;;;;5073050;28;20501;-77
2022/11/11 05:38:46;;;;;;;;;;;;;;;;;;5073916;28;19977;-77
2022/11/11 05:41:14;;;;;;;;;;;;;;;;;;5073743;28;19972;-78
2022/11/11 05:43:41;;;;;;;;;;;;;;;;;;5073428;28;19960;-78
2022/11/11 05:46:07;;;;;;;;;;;;;;;;;;5069930;28;19975;-78
2022/11/11 05:48:33;;;;;;;;;;;;;;;;;;5074018;28;19935;-80
2022/11/11 05:51:00;;;;;;;;;;;;;;;;;;5076141;28;19990;-78
2022/11/11 05:53:27;;;;;;;;;;;;;;;;;;5077190;28;19924;-78
2022/11/11 05:55:53;;;;;;;;;;;;;;;;;;5078879;28;19950;-78
2022/11/11 05:58:21;;;;;;;;;;;;;;;;;;5087300;28;19924;-78
2022/11/11 06:00:48;;;;;;;;;;;;;;;;;;5094055;28;19991;-78
2022/11/11 06:03:14;;;;;;;;;;;;;;;;;;5093516;28;19913;-78
2022/11/11 06:05:40;;;;;;;;;;;;;;;;;;5087332;28;20027;-77
2022/11/11 06:08:07;;;;;;;;;;;;;;;;;;5079688;28;19932;-77
2022/11/11 06:10:33;;;;;;;;;;;;;;;;;;5075047;28;19967;-77
2022/11/11 06:13:06;;;;;;;;;;;;;;;;;;5078465;28;19983;-78
2022/11/11 06:15:34;;;;;;;;;;;;;;;;;;5080488;28;19932;-77
2022/11/11 06:18:01;;;;;;;;;;;;;;;;;;5079723;28;20023;-77
2022/11/11 06:20:27;;;;;;;;;;;;;;;;;;5080753;28;19987;-78
2022/11/11 06:22:56;;;;;;;;;;;;;;;;;;5080917;28;19935;-79
2022/11/11 06:28:07;;;;;;;;;;;;;;;;;;5078170;28;19931;-76
2022/11/11 06:30:35;;;;;;;;;;;;;;;;;;5079984;28;20026;-78
2022/11/11 06:33:01;;;;;;;;;;;;;;;;;;5080844;28;19986;-78
2022/11/11 06:35:28;;;;;;;;;;;;;;;;;;5081363;28;19948;-78
2022/11/11 06:37:55;;;;;;;;;;;;;;;;;;5080094;28;19929;-78
2022/11/11 06:40:23;;;;;;;;;;;;;;;;;;5080262;28;19978;-77
2022/11/11 06:42:49;;;;;;;;;;;;;;;;;;5079302;28;19924;-78
2022/11/11 06:45:16;;;;;;;;;;;;;;;;;;5077438;28;19986;-76
2022/11/11 06:47:44;;;;;;;;;;;;;;;;;;5074779;28;19924;-79
2022/11/11 06:50:11;;;;;;;;;;;;;;;;;;5075154;28;19999;-77
2022/11/11 06:52:37;;;;;;;;;;;;;;;;;;5075913;28;19975;-76
2022/11/11 06:55:04;;;;;;;;;;;;;;;;;;5076296;28;19933;-76
2022/11/11 06:57:30;;;;;;;;;;;;;;;;;;5076888;28;19925;-76
2022/11/11 06:59:57;;;;;;;;;;;;;;;;;;5074759;28;20343;-77
2022/11/11 07:02:23;;;;;;;;;;;;;;;;;;5077312;28;20377;-77
2022/11/11 07:04:51;;;;;;;;;;;;;;;;;;5076117;28;20275;-78
2022/11/11 07:07:18;;;;;;;;;;;;;;;;;;5078152;28;19950;-77
2022/11/11 07:09:44;;;;;;;;;;;;;;;;;;5075516;28;19925;-78
2022/11/11 07:12:11;;;;;;;;;;;;;;;;;;5079074;28;20023;-78
2022/11/11 07:14:37;;;;;;;;;;;;;;;;;;5082247;28;19928;-78
2022/11/11 07:17:04;;;;;;;;;;;;;;;;;;5085511;28;20027;-77
2022/11/11 07:19:30;;;;;;;;;;;;;;;;;;5082235;28;19932;-78
2022/11/11 07:21:58;;;;;;;;;;;;;;;;;;5078428;28;19947;-77
2022/11/11 07:24:25;;;;;;;;;;;;;;;;;;5076859;28;19970;-78
2022/11/11 07:26:51;;;;;;;;;;;;;;;;;;5081674;28;20389;-79
2022/11/11 07:29:18;;;;;;;;;;;;;;;;;;5075039;28;20019;-77
2022/11/11 07:31:45;;;;;;;;;;;;;;;;;;5075172;28;19947;-76
2022/11/11 07:34:11;;;;;;;;;;;;;;;;;;5074363;28;19925;-77
2022/11/11 07:36:38;;;;;;;;;;;;;;;;;;5074053;28;19931;-76
2022/11/11 07:39:05;;;;;;;;;;;;;;;;;;5065478;28;20405;-77
2022/11/11 07:41:32;;;;;;;;;;;;;;;;;;5076706;28;19956;-77
2022/11/11 07:43:58;;;;;;;;;;;;;;;;;;5076306;28;19963;-76
2022/11/11 07:46:25;;;;;;;;;;;;;;;;;;5074682;28;20343;-76
2022/11/11 07:48:51;;;;;;;;;;;;;;;;;;5073539;28;19967;-76
2022/11/11 07:51:18;;;;;;;;;;;;;;;;;;5075864;28;20024;-76
2022/11/11 07:53:44;;;;;;;;;;;;;;;;;;5077291;28;19967;-77
2022/11/11 07:56:12;;;;;;;;;;;;;;;;;;5074707;28;19971;-77
2022/11/11 07:58:38;;;;;;;;;;;;;;;;;;5072678;28;19979;-77
2022/11/11 08:01:05;;;;;;;;;;;;;;;;;;5085772;28;20006;-77
2022/11/11 08:03:32;;;;;;;;;;;;;;;;;;5092946;28;19986;-76
2022/11/11 08:05:58;;;;;;;;;;;;;;;;;;5094269;28;19924;-78
2022/11/11 08:08:26;;;;;;;;;;;;;;;;;;5093213;28;19986;-78
2022/11/11 08:10:53;;;;;;;;;;;;;;;;;;5081559;28;19959;-77
2022/11/11 08:13:39;;;;;;;;;;;;;;;;;;5073928;28;19994;-79
2022/11/11 08:16:06;;;;;;;;;;;;;;;;;;5076810;28;19950;-78
2022/11/11 08:18:33;;;;;;;;;;;;;;;;;;5068140;28;19924;-77
2022/11/11 08:20:59;;;;;;;;;;;;;;;;;;5072258;28;20012;-77
2022/11/11 08:23:31;;;;;;;;;;;;;;;;;;5073143;28;19967;-78
2022/11/11 08:25:58;;;;;;;;;;;;;;;;;;5076869;28;19983;-79
2022/11/11 08:28:26;;;;;;;;;;;;;;;;;;5074603;28;19933;-78
2022/11/11 08:30:52;;;;;;;;;;;;;;;;;;5077720;28;20380;-76
2022/11/11 08:33:19;;;;;;;;;;;;;;;;;;5073368;28;20110;-78
2022/11/11 08:35:45;;;;;;;;;;;;;;;;;;5073828;28;20341;-76
2022/11/11 08:38:12;;;;;;;;;;;;;;;;;;5071171;28;19990;-77
2022/11/11 08:40:39;;;;;;;;;;;;;;;;;;5071314;28;19924;-76
2022/11/11 08:43:05;;;;;;;;;;;;;;;;;;5071052;28;19931;-77
2022/11/11 08:45:33;;;;;;;;;;;;;;;;;;5072118;28;20387;-77
2022/11/11 08:47:59;;;;;;;;;;;;;;;;;;5073565;28;19966;-78
2022/11/11 08:50:27;;;;;;;;;;;;;;;;;;5078220;28;19968;-78
2022/11/11 08:52:53;;;;;;;;;;;;;;;;;;5080497;28;19959;-80
2022/11/11 08:55:20;;;;;;;;;;;;;;;;;;5078346;28;19960;-81
2022/11/11 08:57:46;;;;;;;;;;;;;;;;;;5077062;28;19963;-78
2022/11/11 09:00:14;;;;;;;;;;;;;;;;;;5076516;28;19924;-77
2022/11/11 09:02:42;;;;;;;;;;;;;;;;;;5077127;28;20001;-78
2022/11/11 09:05:08;;;;;;;;;;;;;;;;;;5072189;28;19946;-79
2022/11/11 09:07:35;;;;;;;;;;;;;;;;;;5076120;28;19935;-80
2022/11/11 09:10:02;;;;;;;;;;;;;;;;;;5077810;28;20411;-83
2022/11/11 09:12:28;;;;;;;;;;;;;;;;;;5077137;28;19971;-81
2022/11/11 09:14:55;;;;;;;;;;;;;;;;;;5077988;28;19992;-81
2022/11/11 09:17:21;;;;;;;;;;;;;;;;;;5076564;28;19925;-77
2022/11/11 09:19:49;;;;;;;;;;;;;;;;;;5077640;28;19928;-78
2022/11/11 09:22:16;;;;;;;;;;;;;;;;;;5076128;28;19932;-78
2022/11/11 09:24:43;;;;;;;;;;;;;;;;;;5074489;28;19963;-77
2022/11/11 09:27:10;;;;;;;;;;;;;;;;;;5075806;28;19963;-78
2022/11/11 09:29:36;;;;;;;;;;;;;;;;;;5075943;28;19963;-78
2022/11/11 09:32:03;;;;;;;;;;;;;;;;;;5079116;28;19984;-77
2022/11/11 09:34:38;;;;;;;;;;;;;;;;;;5091887;28;19946;-77
2022/11/11 09:37:06;;;;;;;;;;;;;;;;;;5095420;28;19912;-77
2022/11/11 09:39:33;;;;;;;;;;;;;;;;;;5093149;28;19924;-77
2022/11/11 09:42:03;;;;;;;;;;;;;;;;;;5090856;28;19954;-78
2022/11/11 09:44:40;;;;;;;;;;;;;;;;;;5086332;28;20334;-77
2022/11/11 09:47:13;;;;;;;;;;;;;;;;;;5093803;28;19924;-77
2022/11/11 09:49:44;;;;;;;;;;;;;;;;;;5099056;28;19920;-77
2022/11/11 09:52:33;;;;;;;;;;;;;;;;;;5096018;28;19934;-78
2022/11/11 09:55:03;;;;;;;;;;;;;;;;;;5101606;28;19913;-77
2022/11/11 09:57:32;;;;;;;;;;;;;;;;;;5101574;28;19923;-77
2022/11/11 10:00:00;;;;;;;;;;;;;;;;;;5101158;28;19908;-79
2022/11/11 10:02:30;;;;;;;;;;;;;;;;;;5100913;28;20405;-79
2022/11/11 10:05:00;;;;;;;;;;;;;;;;;;5099706;28;19925;-78
2022/11/11 10:07:51;;;;;;;;;;;;;;;;;;5098405;28;19928;-78
2022/11/11 10:10:23;;;;;;;;;;;;;;;;;;5099061;28;19951;-79
2022/11/11 10:12:52;;;;;;;;;;;;;;;;;;5099664;28;19913;-77
2022/11/11 10:15:19;;;;;;;;;;;;;;;;;;5084246;28;19924;-79
2022/11/11 10:17:54;;;;;;;;;;;;;;;;;;5098205;28;19921;-79
2022/11/11 10:20:23;;;;;;;;;;;;;;;;;;5101180;28;19974;-79
2022/11/11 10:22:55;;;;;;;;;;;;;;;;;;5097982;28;19925;-79
2022/11/11 10:25:25;;;;;;;;;;;;;;;;;;5097781;28;19925;-77
2022/11/11 10:27:52;;;;;;;;;;;;;;;;;;5094605;28;19940;-80
2022/11/11 10:30:20;;;;;;;;;;;;;;;;;;5084185;28;19924;-79
2022/11/11 10:32:49;;;;;;;;;;;;;;;;;;5083249;28;20017;-77
2022/11/11 10:35:17;;;;;;;;;;;;;;;;;;5077966;28;20010;-78
2022/11/11 10:37:44;;;;;;;;;;;;;;;;;;5082414;28;20015;-77
2022/11/11 10:40:15;;;;;;;;;;;;;;;;;;5086308;28;19928;-77
2022/11/11 10:42:43;;;;;;;;;;;;;;;;;;5091345;28;19920;-78
2022/11/11 10:45:13;;;;;;;;;;;;;;;;;;5095287;28;19925;-78
2022/11/11 10:47:44;;;;;;;;;;;;;;;;;;5107451;28;19928;-78
2022/11/11 10:50:15;;;;;;;;;;;;;;;;;;5096300;28;19951;-77
2022/11/11 10:52:45;;;;;;;;;;;;;;;;;;5095940;28;19909;-77
2022/11/11 10:55:16;;;;;;;;;;;;;;;;;;5097385;28;19924;-78
2022/11/11 10:57:46;;;;;;;;;;;;;;;;;;5097740;28;19958;-78
2022/11/11 11:00:20;;;;;;;;;;;;;;;;;;5097657;28;19919;-79
2022/11/11 11:02:51;;;;;;;;;;;;;;;;;;5098650;28;19946;-80
2022/11/11 11:05:22;;;;;;;;;;;;;;;;;;5098263;28;19950;-77
2022/11/11 11:07:50;;;;;;;;;;;;;;;;;;5095920;28;19932;-78
2022/11/11 11:10:18;;;;;;;;;;;;;;;;;;5091247;28;20079;-78
2022/11/11 11:12:48;;;;;;;;;;;;;;;;;;5096407;28;19955;-79
2022/11/11 11:15:17;;;;;;;;;;;;;;;;;;5096530;28;19920;-78
2022/11/11 11:17:51;;;;;;;;;;;;;;;;;;5096428;28;19947;-77
2022/11/11 11:20:19;;;;;;;;;;;;;;;;;;5094469;28;19932;-77
2022/11/11 11:22:47;;;;;;;;;;;;;;;;;;5096574;28;19912;-78
2022/11/11 11:25:14;;;;;;;;;;;;;;;;;;5094878;28;19951;-78
2022/11/11 11:27:41;;;;;;;;;;;;;;;;;;5095290;28;20176;-77
2022/11/11 11:30:14;;;;;;;;;;;;;;;;;;5083786;28;20039;-78
2022/11/11 11:32:43;;;;;;;;;;;;;;;;;;5073910;28;19924;-78
2022/11/11 11:35:09;;;;;;;;;;;;;;;;;;5074700;28;19932;-77
2022/11/11 11:37:48;;;;;;;;;;;;;;;;;;5074567;28;19968;-78
2022/11/11 11:40:15;;;;;;;;;;;;;;;;;;5073875;28;19974;-77
2022/11/11 11:42:42;;;;;;;;;;;;;;;;;;5072997;28;20398;-78
2022/11/11 11:45:24;;;;;;;;;;;;;;;;;;5074855;28;19924;-77
2022/11/11 11:47:57;;;;;;;;;;;;;;;;;;5074254;28;20031;-76
2022/11/11 11:50:39;;;;;;;;;;;;;;;;;;5079121;28;19992;-77
2022/11/11 11:53:12;;;;;;;;;;;;;;;;;;5075817;28;19955;-77
2022/11/11 11:55:42;;;;;;;;;;;;;;;;;;5074501;28;19959;-76
2022/11/11 11:58:18;;;;;;;;;;;;;;;;;;5073220;28;20058;-76
2022/11/11 12:00:50;;;;;;;;;;;;;;;;;;5072609;28;19929;-77
2022/11/11 12:03:27;;;;;;;;;;;;;;;;;;5074720;28;19970;-77
2022/11/11 12:06:00;;;;;;;;;;;;;;;;;;5072858;28;19924;-78
2022/11/11 12:08:44;;;;;;;;;;;;;;;;;;5073824;28;20422;-77
2022/11/11 12:11:15;;;;;;;;;;;;;;;;;;5077163;28;19979;-76
2022/11/11 12:13:46;;;;;;;;;;;;;;;;;;5073471;28;20011;-76
2022/11/11 12:16:21;;;;;;;;;;;;;;;;;;5073697;28;19967;-77
2022/11/11 12:18:59;;;;;;;;;;;;;;;;;;5070105;28;20626;-77
2022/11/11 12:21:29;;;;;;;;;;;;;;;;;;5074347;28;19924;-77
2022/11/11 12:23:58;;;;;;;;;;;;;;;;;;5054613;28;19959;-77
2022/11/11 12:26:27;;;;;;;;;;;;;;;;;;5052004;28;19925;-77
2022/11/11 12:29:04;;;;;;;;;;;;;;;;;;5054215;28;19983;-78
2022/11/11 12:31:37;;;;;;;;;;;;;;;;;;5056053;28;20415;-78
2022/11/11 12:34:08;;;;;;;;;;;;;;;;;;5054974;28;19932;-78
2022/11/11 12:36:36;;;;;;;;;;;;;;;;;;5074472;28;20290;-78
2022/11/11 12:39:06;;;;;;;;;;;;;;;;;;5073415;28;20016;-77
2022/11/11 12:41:39;;;;;;;;;;;;;;;;;;5075800;28;19931;-81
2022/11/11 12:44:10;;;;;;;;;;;;;;;;;;5077694;28;19951;-86
2022/11/11 12:46:51;;;;;;;;;;;;;;;;;;5076814;28;19964;-76
2022/11/11 12:49:31;;;;;;;;;;;;;;;;;;5076133;28;19971;-77
2022/11/11 12:52:02;;;;;;;;;;;;;;;;;;5075360;28;19947;-79
2022/11/11 12:54:34;;;;;;;;;;;;;;;;;;5070009;28;20031;-76
2022/11/11 12:57:03;;;;;;;;;;;;;;;;;;5070192;28;20566;-76
2022/11/11 12:59:37;;;;;;;;;;;;;;;;;;5071906;28;20110;-77
2022/11/11 13:02:15;;;;;;;;;;;;;;;;;;5072428;28;19967;-76
2022/11/11 13:04:48;;;;;;;;;;;;;;;;;;5064574;28;20011;-76
2022/11/11 13:07:36;;;;;;;;;;;;;;;;;;5071960;28;20363;-77
2022/11/11 13:10:08;;;;;;;;;;;;;;;;;;5069104;28;19978;-77
2022/11/11 13:12:38;;;;;;;;;;;;;;;;;;5073365;28;19971;-76
2022/11/11 13:15:11;;;;;;;;;;;;;;;;;;5073981;28;20009;-77
2022/11/11 13:17:39;;;;;;;;;;;;;;;;;;5073991;28;19929;-76
2022/11/11 13:20:14;;;;;;;;;;;;;;;;;;5071497;28;19984;-77
2022/11/11 13:22:40;;;;;;;;;;;;;;;;;;5077322;28;19931;-78
2022/11/11 13:25:07;;;;;;;;;;;;;;;;;;5078365;28;19924;-77
2022/11/11 13:27:37;;;;;;;;;;;;;;;;;;5070061;28;19967;-77
2022/11/11 13:30:06;;;;;;;;;;;;;;;;;;5072042;28;19931;-77
2022/11/11 13:32:35;;;;;;;;;;;;;;;;;;5078210;28;19931;-77
2022/11/11 13:35:03;;;;;;;;;;;;;;;;;;5076667;28;20059;-77
2022/11/11 13:37:32;;;;;;;;;;;;;;;;;;5077842;28;20007;-77
2022/11/11 13:40:02;;;;;;;;;;;;;;;;;;5078266;28;19936;-77
2022/11/11 13:42:32;;;;;;;;;;;;;;;;;;5076982;28;20460;-77
2022/11/11 13:44:59;;;;;;;;;;;;;;;;;;5079475;28;19924;-78
2022/11/11 13:47:30;;;;;;;;;;;;;;;;;;5083701;28;19934;-77
2022/11/11 13:49:58;;;;;;;;;;;;;;;;;;5084496;28;19924;-77
2022/11/11 13:52:27;;;;;;;;;;;;;;;;;;5086147;28;19928;-77
2022/11/11 13:54:57;;;;;;;;;;;;;;;;;;5080333;28;19977;-76
2022/11/11 13:57:25;;;;;;;;;;;;;;;;;;5079693;28;19970;-76
2022/11/11 13:59:57;;;;;;;;;;;;;;;;;;5079479;28;19992;-77
2022/11/11 14:02:29;;;;;;;;;;;;;;;;;;5078320;28;20023;-77
2022/11/11 14:05:10;;;;;;;;;;;;;;;;;;5078671;28;19925;-78
2022/11/11 14:07:53;;;;;;;;;;;;;;;;;;5080005;28;19931;-78
2022/11/11 14:10:38;;;;;;;;;;;;;;;;;;5080606;28;19931;-79
2022/11/11 14:13:19;;;;;;;;;;;;;;;;;;5073049;28;19960;-77
2022/11/11 14:15:47;;;;;;;;;;;;;;;;;;5080650;28;20339;-78
2022/11/11 14:18:33;;;;;;;;;;;;;;;;;;5081602;28;19971;-78
2022/11/11 14:21:00;;;;;;;;;;;;;;;;;;5088462;22;19976;-77
2022/11/11 14:23:35;;;;;;;;;;;;;;;;;;5050998;28;20467;-76
2022/11/11 14:26:19;;;;;;;;;;;;;;;;;;5043217;28;20027;-77
2022/11/11 14:28:50;;;;;;;;;;;;;;;;;;5033856;28;20463;-76
2022/11/11 14:31:30;;;;;;;;;;;;;;;;;;5047731;28;19985;-77
2022/11/11 14:34:00;;;;;;;;;;;;;;;;;;5032564;28;20015;-76
2022/11/11 14:36:32;;;;;;;;;;;;;;;;;;5032833;28;20415;-76
2022/11/11 14:39:06;;;;;;;;;;;;;;;;;;5032092;28;20581;-76
2022/11/11 14:41:43;;;;;;;;;;;;;;;;;;5034049;28;19975;-76
2022/11/11 14:44:43;;;;;;;;;;;;;;;;;;5033733;28;19925;-76
2022/11/11 14:47:30;;;;;;;;;;;;;;;;;;4971582;28;19930;-76
2022/11/11 14:49:58;;;;;;;;;;;;;;;;;;4970872;28;19962;-76
2022/11/11 14:52:28;;;;;;;;;;;;;;;;;;5006730;28;19925;-76
2022/11/11 14:54:59;;;;;;;;;;;;;;;;;;5030418;28;20020;-76
2022/11/11 14:57:29;;;;;;;;;;;;;;;;;;5035063;28;19975;-77
2022/11/11 14:59:55;;;;;;;;;;;;;;;;;;5034798;28;19956;-79
2022/11/11 15:02:26;;;;;;;;;;;;;;;;;;5042470;28;19972;-82
2022/11/11 15:04:53;;;;;;;;;;;;;;;;;;5038964;28;19976;-78
2022/11/11 15:07:27;;;;;;;;;;;;;;;;;;5032365;28;20016;-76
2022/11/11 15:10:03;;;;;;;;;;;;;;;;;;5015720;28;19926;-76
2022/11/11 15:12:38;;;;;;;;;;;;;;;;;;5030265;28;20392;-75
2022/11/11 15:15:09;;;;;;;;;;;;;;;;;;5028486;28;20002;-75
2022/11/11 15:17:40;;;;;;;;;;;;;;;;;;5031967;28;20011;-75
2022/11/11 15:20:28;;;;;;;;;;;;;;;;;;5031957;28;20023;-76
2022/11/11 15:22:57;;;;;;;;;;;;;;;;;;5028504;28;20443;-75
2022/11/11 15:25:31;;;;;;;;;;;;;;;;;;5025777;28;20027;-75
2022/11/11 15:28:00;;;;;;;;;;;;;;;;;;5030347;28;20316;-76
2022/11/11 15:30:40;;;;;;;;;;;;;;;;;;5032096;28;19976;-75
2022/11/11 15:33:13;;;;;;;;;;;;;;;;;;5024399;28;19965;-77
2022/11/11 15:35:42;;;;;;;;;;;;;;;;;;5029340;28;19956;-75
2022/11/11 15:38:11;;;;;;;;;;;;;;;;;;5029680;28;19960;-75
2022/11/11 15:40:44;;;;;;;;;;;;;;;;;;5032776;28;20012;-76
2022/11/11 15:43:15;;;;;;;;;;;;;;;;;;5031309;28;20020;-74
2022/11/11 15:45:42;;;;;;;;;;;;;;;;;;5030560;28;19932;-75
2022/11/11 15:48:14;;;;;;;;;;;;;;;;;;5031741;28;19968;-76
2022/11/11 15:50:41;;;;;;;;;;;;;;;;;;5032090;28;19969;-76
2022/11/11 15:53:11;;;;;;;;;;;;;;;;;;5031963;28;20012;-76
2022/11/11 15:55:39;;;;;;;;;;;;;;;;;;5031057;28;19933;-75
2022/11/11 15:58:15;;;;;;;;;;;;;;;;;;5029577;28;20376;-76
2022/11/11 16:00:42;;;;;;;;;;;;;;;;;;5028375;28;20021;-75
2022/11/11 16:03:14;;;;;;;;;;;;;;;;;;5024840;28;20014;-75
2022/11/11 16:05:42;;;;;;;;;;;;;;;;;;5030741;28;20012;-75
2022/11/11 16:08:10;;;;;;;;;;;;;;;;;;5030270;28;19964;-75
2022/11/11 16:10:37;;;;;;;;;;;;;;;;;;5029769;28;19933;-75
2022/11/11 16:13:05;;;;;;;;;;;;;;;;;;5027682;28;20411;-75
2022/11/11 16:15:38;;;;;;;;;;;;;;;;;;5027705;28;19996;-75
2022/11/11 16:18:07;;;;;;;;;;;;;;;;;;5029575;28;19935;-75
2022/11/11 16:20:35;;;;;;;;;;;;;;;;;;5030914;28;20028;-75
2022/11/11 16:23:03;;;;;;;;;;;;;;;;;;5030691;28;20395;-75
2022/11/11 16:25:30;;;;;;;;;;;;;;;;;;5028977;28;20390;-75
2022/11/11 16:27:56;;;;;;;;;;;;;;;;;;5014532;28;19948;-75
2022/11/11 16:30:29;;;;;;;;;;;;;;;;;;5011881;28;19969;-75
2022/11/11 16:32:57;;;;;;;;;;;;;;;;;;5031637;28;20007;-76
2022/11/11 16:35:25;;;;;;;;;;;;;;;;;;5031067;28;20028;-75
2022/11/11 16:37:52;;;;;;;;;;;;;;;;;;5030692;28;19987;-75
2022/11/11 16:40:25;;;;;;;;;;;;;;;;;;5030640;28;19931;-75
2022/11/11 16:42:52;;;;;;;;;;;;;;;;;;5013943;28;20023;-75
2022/11/11 16:45:19;;;;;;;;;;;;;;;;;;5030957;28;19925;-76
2022/11/11 16:47:47;;;;;;;;;;;;;;;;;;5030703;28;20025;-76
2022/11/11 16:50:17;;;;;;;;;;;;;;;;;;5030257;28;20283;-76
2022/11/11 16:52:45;;;;;;;;;;;;;;;;;;5031429;28;19929;-76
2022/11/11 16:55:18;;;;;;;;;;;;;;;;;;5029867;28;20019;-76
2022/11/11 16:57:44;;;;;;;;;;;;;;;;;;5031173;28;19929;-76
2022/11/11 17:00:13;;;;;;;;;;;;;;;;;;5030413;28;19925;-76
2022/11/11 17:02:39;;;;;;;;;;;;;;;;;;5023627;28;19925;-76
2022/11/11 17:05:06;;;;;;;;;;;;;;;;;;5024537;28;20012;-76
2022/11/11 17:07:35;;;;;;;;;;;;;;;;;;5025581;28;19964;-76
2022/11/11 17:10:15;;;;;;;;;;;;;;;;;;5024810;28;19936;-77
2022/11/11 17:12:42;;;;;;;;;;;;;;;;;;5025876;28;19933;-77
2022/11/11 17:15:10;;;;;;;;;;;;;;;;;;5024966;28;20008;-77
2022/11/11 17:17:37;;;;;;;;;;;;;;;;;;5018306;28;20057;-77
2022/11/11 17:20:05;;;;;;;;;;;;;;;;;;5023279;28;20407;-76
2022/11/11 17:22:31;;;;;;;;;;;;;;;;;;5029933;28;20029;-76
2022/11/11 17:24:59;;;;;;;;;;;;;;;;;;5029602;28;20017;-76
2022/11/11 17:27:29;;;;;;;;;;;;;;;;;;5026865;28;19980;-77
2022/11/11 17:29:55;;;;;;;;;;;;;;;;;;5029222;28;20447;-75
2022/11/11 17:32:21;;;;;;;;;;;;;;;;;;5029815;28;19968;-74
2022/11/11 17:34:48;;;;;;;;;;;;;;;;;;5030280;28;20011;-77
2022/11/11 17:37:14;;;;;;;;;;;;;;;;;;5029458;28;20831;-77
2022/11/11 17:39:44;;;;;;;;;;;;;;;;;;5030093;28;20009;-76
2022/11/11 17:42:12;;;;;;;;;;;;;;;;;;5029950;28;20012;-76
2022/11/11 17:44:39;;;;;;;;;;;;;;;;;;5024721;28;19929;-76
2022/11/11 17:47:05;;;;;;;;;;;;;;;;;;5029830;28;20428;-77
2022/11/11 17:49:32;;;;;;;;;;;;;;;;;;5029761;28;19975;-76
2022/11/11 17:51:58;;;;;;;;;;;;;;;;;;5030230;28;20360;-76
2022/11/11 17:54:26;;;;;;;;;;;;;;;;;;5033890;28;19968;-77
2022/11/11 17:56:52;;;;;;;;;;;;;;;;;;5032323;28;19972;-76
2022/11/11 17:59:20;;;;;;;;;;;;;;;;;;5028843;28;19972;-76
2022/11/11 18:01:47;;;;;;;;;;;;;;;;;;5029782;28;20016;-77
2022/11/11 18:04:13;;;;;;;;;;;;;;;;;;5017671;28;20013;-77
2022/11/11 18:06:39;;;;;;;;;;;;;;;;;;5029517;28;19925;-77
2022/11/11 18:09:06;;;;;;;;;;;;;;;;;;5032619;28;19926;-77
2022/11/11 18:11:34;;;;;;;;;;;;;;;;;;5033136;28;19925;-77
2022/11/11 18:14:01;;;;;;;;;;;;;;;;;;5033874;28;19932;-77